Time;durP1;ratioP1;P1;durP2;ratioP2;P2;SDS_P1;SDS_P2;PMS_P1;PMS_P2;Temp;Humidity;BMP_temperature;BMP_pressure;BME280_temperature;BME280_humidity;BME280_pressure;Samples;Min_cycle;Max_cycle;Signal;HPM_P1;HPM_P2
2022/11/22 00:00:32;;;;;;;;;8.00;7.75;;;;;;;;5087398;27;46179;-78
2022/11/22 00:02:57;;;;;;;;;3.50;3.00;;;;;;;;5083866;27;45191;-79
2022/11/22 00:05:22;;;;;;;;;7.25;4.00;;;;;;;;5081393;27;45244;-79
2022/11/22 00:07:48;;;;;;;;;8.00;1.00;;;;;;;;5080647;27;45399;-79
2022/11/22 00:10:14;;;;;;;;;8.00;6.00;;;;;;;;5081596;27;45256;-79
2022/11/22 00:12:39;;;;;;;;;4.00;4.00;;;;;;;;5089067;27;45272;-79
2022/11/22 00:15:05;;;;;;;;;7.25;6.25;;;;;;;;5081076;27;45125;-80
2022/11/22 00:17:30;;;;;;;;;9.75;4.50;;;;;;;;5089416;27;45398;-80
2022/11/22 00:19:56;;;;;;;;;7.50;6.00;;;;;;;;5080410;27;45224;-80
2022/11/22 00:22:21;;;;;;;;;7.25;4.50;;;;;;;;5079675;27;45347;-79
2022/11/22 00:24:46;;;;;;;;;6.50;4.50;;;;;;;;5079488;27;45243;-80
2022/11/22 00:27:11;;;;;;;;;2.25;1.75;;;;;;;;5081224;27;45963;-79
2022/11/22 00:29:37;;;;;;;;;3.00;3.00;;;;;;;;5095790;27;45515;-79
2022/11/22 00:32:02;;;;;;;;;2.25;2.00;;;;;;;;5088620;27;45346;-79
2022/11/22 00:34:27;;;;;;;;;6.75;3.00;;;;;;;;5084510;27;45321;-79
2022/11/22 00:36:52;;;;;;;;;6.00;6.00;;;;;;;;5094821;27;45410;-79
2022/11/22 00:39:17;;;;;;;;;3.00;3.00;;;;;;;;5098059;27;45403;-78
2022/11/22 00:41:43;;;;;;;;;6.75;3.50;;;;;;;;5085768;27;45412;-78
2022/11/22 00:44:08;;;;;;;;;6.00;6.00;;;;;;;;5085087;27;45310;-79
2022/11/22 00:46:33;;;;;;;;;2.00;1.00;;;;;;;;5082443;27;45402;-79
2022/11/22 00:48:58;;;;;;;;;1.00;1.00;;;;;;;;5079709;27;45528;-79
2022/11/22 00:51:23;;;;;;;;;5.00;4.25;;;;;;;;5083897;27;45309;-79
2022/11/22 00:53:49;;;;;;;;;7.00;2.00;;;;;;;;5093990;27;45292;-79
2022/11/22 00:56:14;;;;;;;;;3.00;1.50;;;;;;;;5087794;27;46861;-79
2022/11/22 00:58:39;;;;;;;;;3.75;2.50;;;;;;;;5086363;27;46688;-79
2022/11/22 01:01:04;;;;;;;;;3.00;2.00;;;;;;;;5081856;27;45454;-79
2022/11/22 01:03:29;;;;;;;;;2.25;2.25;;;;;;;;5079718;27;45594;-79
2022/11/22 01:05:55;;;;;;;;;7.75;5.75;;;;;;;;5081900;27;45449;-79
2022/11/22 01:08:20;;;;;;;;;5.25;2.00;;;;;;;;5080347;27;46043;-79
2022/11/22 01:10:45;;;;;;;;;5.75;5.00;;;;;;;;5091006;27;45536;-79
2022/11/22 01:13:11;;;;;;;;;6.50;2.00;;;;;;;;5080971;27;45335;-78
2022/11/22 01:15:36;;;;;;;;;5.00;2.50;;;;;;;;5083250;27;45355;-79
2022/11/22 01:18:01;;;;;;;;;5.50;3.50;;;;;;;;5079713;27;46207;-79
2022/11/22 01:20:27;;;;;;;;;1.00;1.00;;;;;;;;5079796;27;45315;-79
2022/11/22 01:22:52;;;;;;;;;5.75;2.50;;;;;;;;5086813;27;45390;-78
2022/11/22 01:25:17;;;;;;;;;2.25;2.25;;;;;;;;5083426;27;45300;-78
2022/11/22 01:27:42;;;;;;;;;2.75;2.00;;;;;;;;5080613;27;45735;-79
2022/11/22 01:30:08;;;;;;;;;15.25;11.00;;;;;;;;5081253;27;45422;-78
2022/11/22 01:32:33;;;;;;;;;3.00;3.00;;;;;;;;5085562;27;45380;-78
2022/11/22 01:34:58;;;;;;;;;3.00;2.00;;;;;;;;5083618;27;45169;-78
2022/11/22 01:37:23;;;;;;;;;2.50;2.50;;;;;;;;5083526;27;45318;-78
2022/11/22 01:39:49;;;;;;;;;6.50;3.00;;;;;;;;5083445;27;45496;-78
2022/11/22 01:42:14;;;;;;;;;5.25;3.00;;;;;;;;5086745;27;45343;-77
2022/11/22 01:44:40;;;;;;;;;1.25;1.25;;;;;;;;5084348;27;45276;-78
2022/11/22 01:47:08;;;;;;;;;7.25;1.25;;;;;;;;5078868;27;45502;-78
2022/11/22 01:49:52;;;;;;;;;6.50;2.00;;;;;;;;5079053;27;45461;-79
2022/11/22 01:52:19;;;;;;;;;11.50;5.50;;;;;;;;5092019;27;45375;-78
2022/11/22 01:54:46;;;;;;;;;8.75;4.00;;;;;;;;5095889;27;45411;-78
2022/11/22 01:57:16;;;;;;;;;7.75;3.25;;;;;;;;5089127;27;45378;-78
2022/11/22 01:59:46;;;;;;;;;11.00;6.50;;;;;;;;5083017;27;45548;-77
2022/11/22 02:02:11;;;;;;;;;4.25;2.00;;;;;;;;5084787;27;45312;-77
2022/11/22 02:04:38;;;;;;;;;7.75;5.00;;;;;;;;5079100;27;45322;-77
2022/11/22 02:07:14;;;;;;;;;0.00;0.00;;;;;;;;5084601;27;45625;-78
2022/11/22 02:09:39;;;;;;;;;12.00;4.50;;;;;;;;5079022;27;45478;-77
2022/11/22 02:12:06;;;;;;;;;2.75;2.75;;;;;;;;5080389;27;45930;-78
2022/11/22 02:14:32;;;;;;;;;3.00;3.00;;;;;;;;5076861;27;47064;-77
2022/11/22 02:16:57;;;;;;;;;3.00;2.00;;;;;;;;5079372;27;46142;-77
2022/11/22 02:19:23;;;;;;;;;4.50;2.00;;;;;;;;5078545;28;45343;-77
2022/11/22 02:21:50;;;;;;;;;3.50;3.00;;;;;;;;5089358;27;45386;-77
2022/11/22 02:24:20;;;;;;;;;3.00;3.00;;;;;;;;5084393;27;45447;-77
2022/11/22 02:26:45;;;;;;;;;6.00;2.00;;;;;;;;5083325;27;47300;-77
2022/11/22 02:29:11;;;;;;;;;2.75;2.00;;;;;;;;5080920;27;45185;-77
2022/11/22 02:31:38;;;;;;;;;2.00;2.00;;;;;;;;5088698;27;45212;-77
2022/11/22 02:34:04;;;;;;;;;5.00;2.50;;;;;;;;5082322;27;46931;-76
2022/11/22 02:36:32;;;;;;;;;7.50;3.00;;;;;;;;5086012;27;45339;-77
2022/11/22 02:38:57;;;;;;;;;3.50;1.00;;;;;;;;5078282;27;45304;-77
2022/11/22 02:41:22;;;;;;;;;6.75;2.75;;;;;;;;5083070;27;45261;-77
2022/11/22 02:43:48;;;;;;;;;5.25;2.25;;;;;;;;5085369;27;45417;-76
2022/11/22 02:46:19;;;;;;;;;4.00;2.00;;;;;;;;5095943;27;48621;-76
2022/11/22 02:48:45;;;;;;;;;4.75;3.25;;;;;;;;5081425;27;45516;-77
2022/11/22 02:51:15;;;;;;;;;2.00;1.25;;;;;;;;5081954;27;45424;-77
2022/11/22 02:53:40;;;;;;;;;2.00;2.00;;;;;;;;5090486;27;45404;-77
2022/11/22 02:56:05;;;;;;;;;2.75;1.00;;;;;;;;5082319;27;45327;-77
2022/11/22 02:58:31;;;;;;;;;1.00;1.00;;;;;;;;5086075;27;45370;-77
2022/11/22 03:00:56;;;;;;;;;3.00;1.00;;;;;;;;5092847;27;45278;-77
2022/11/22 03:03:21;;;;;;;;;2.75;1.50;;;;;;;;5084220;27;45283;-76
2022/11/22 03:05:47;;;;;;;;;2.50;1.00;;;;;;;;5087176;27;46495;-77
2022/11/22 03:08:12;;;;;;;;;1.50;1.00;;;;;;;;5084953;27;45271;-77
2022/11/22 03:10:37;;;;;;;;;1.00;1.00;;;;;;;;5082722;27;45325;-76
2022/11/22 03:13:02;;;;;;;;;1.00;1.00;;;;;;;;5081298;27;45480;-76
2022/11/22 03:15:27;;;;;;;;;1.50;1.00;;;;;;;;5083763;27;45611;-77
2022/11/22 03:17:59;;;;;;;;;0.75;0.75;;;;;;;;5084958;27;45464;-77
2022/11/22 03:20:24;;;;;;;;;1.00;1.00;;;;;;;;5083852;27;45401;-77
2022/11/22 03:22:49;;;;;;;;;1.00;1.00;;;;;;;;5080843;27;45509;-77
2022/11/22 03:25:15;;;;;;;;;1.00;1.00;;;;;;;;5083500;27;45381;-77
2022/11/22 03:27:40;;;;;;;;;0.00;0.00;;;;;;;;5080625;27;45268;-77
2022/11/22 03:30:05;;;;;;;;;2.00;1.00;;;;;;;;5083670;27;45296;-77
2022/11/22 03:32:30;;;;;;;;;1.50;0.50;;;;;;;;5081724;27;45211;-77
2022/11/22 03:34:56;;;;;;;;;1.00;1.00;;;;;;;;5086698;27;46254;-76
2022/11/22 03:37:21;;;;;;;;;3.00;1.00;;;;;;;;5082047;27;45276;-77
2022/11/22 03:39:46;;;;;;;;;1.00;1.00;;;;;;;;5081226;27;45637;-76
2022/11/22 03:42:11;;;;;;;;;0.50;0.50;;;;;;;;5086479;27;45225;-76
2022/11/22 03:44:36;;;;;;;;;3.00;0.00;;;;;;;;5097607;27;45617;-77
2022/11/22 03:47:02;;;;;;;;;0.00;0.00;;;;;;;;5085489;27;45352;-76
2022/11/22 03:49:27;;;;;;;;;1.00;0.00;;;;;;;;5080924;27;45498;-76
2022/11/22 03:51:52;;;;;;;;;0.25;0.00;;;;;;;;5083224;27;45057;-77
2022/11/22 03:54:17;;;;;;;;;0.00;0.00;;;;;;;;5080789;27;45366;-78
2022/11/22 03:56:42;;;;;;;;;0.75;0.75;;;;;;;;5083429;27;45914;-76
2022/11/22 03:59:07;;;;;;;;;0.25;0.25;;;;;;;;5087287;27;45910;-77
2022/11/22 04:01:33;;;;;;;;;0.50;0.50;;;;;;;;5091312;27;46225;-76
2022/11/22 04:03:58;;;;;;;;;1.00;0.00;;;;;;;;5080360;27;45452;-77
2022/11/22 04:06:23;;;;;;;;;0.75;0.75;;;;;;;;5083101;27;45273;-76
2022/11/22 04:08:48;;;;;;;;;1.75;0.75;;;;;;;;5081724;27;45540;-76
2022/11/22 04:11:13;;;;;;;;;0.00;0.00;;;;;;;;5080281;27;45350;-76
2022/11/22 04:16:22;;;;;;;;;2.25;1.00;;;;;;;;5082241;27;45370;-77
2022/11/22 04:18:47;;;;;;;;;0.50;0.50;;;;;;;;5080722;27;45237;-76
2022/11/22 04:26:41;;;;;;;;;2.00;1.00;;;;;;;;5085130;27;45446;-76
2022/11/22 04:29:06;;;;;;;;;0.25;0.00;;;;;;;;5080133;27;45197;-76
2022/11/22 04:34:15;;;;;;;;;1.75;0.00;;;;;;;;5083895;27;45241;-77
2022/11/22 04:36:40;;;;;;;;;2.25;0.00;;;;;;;;5083748;27;45674;-76
2022/11/22 04:39:05;;;;;;;;;0.00;0.00;;;;;;;;5080340;27;45196;-76
2022/11/22 04:41:31;;;;;;;;;2.00;0.75;;;;;;;;5084478;27;45377;-77
2022/11/22 04:46:40;;;;;;;;;0.50;0.00;;;;;;;;5081982;27;45219;-76
2022/11/22 04:49:05;;;;;;;;;2.50;0.00;;;;;;;;5079992;27;45167;-77
2022/11/22 04:54:14;;;;;;;;;0.50;0.50;;;;;;;;5079963;27;45430;-77
2022/11/22 04:56:39;;;;;;;;;1.00;1.00;;;;;;;;5090438;27;45274;-76
2022/11/22 04:59:04;;;;;;;;;3.50;1.00;;;;;;;;5089165;27;45481;-77
2022/11/22 05:01:30;;;;;;;;;0.25;0.25;;;;;;;;5086829;27;45448;-76
2022/11/22 05:03:55;;;;;;;;;1.75;0.25;;;;;;;;5083466;27;45417;-76
2022/11/22 05:06:20;;;;;;;;;0.75;0.50;;;;;;;;5086529;27;45470;-76
2022/11/22 05:08:45;;;;;;;;;1.00;0.00;;;;;;;;5095210;27;45325;-76
2022/11/22 05:11:10;;;;;;;;;1.00;1.00;;;;;;;;5081626;27;46825;-76
2022/11/22 05:13:37;;;;;;;;;1.00;1.00;;;;;;;;5079411;27;45457;-76
2022/11/22 05:16:03;;;;;;;;;1.25;1.00;;;;;;;;5080150;27;45602;-77
2022/11/22 05:18:28;;;;;;;;;2.00;0.00;;;;;;;;5079465;27;45400;-76
2022/11/22 05:20:53;;;;;;;;;0.00;0.00;;;;;;;;5082845;27;45599;-76
2022/11/22 05:26:03;;;;;;;;;3.00;1.00;;;;;;;;5081362;27;45381;-78
2022/11/22 05:28:32;;;;;;;;;1.00;1.00;;;;;;;;5080046;27;45396;-77
2022/11/22 05:30:58;;;;;;;;;0.00;0.00;;;;;;;;5082177;27;45728;-78
2022/11/22 05:33:23;;;;;;;;;0.00;0.00;;;;;;;;5078681;27;46628;-79
2022/11/22 05:35:48;;;;;;;;;0.00;0.00;;;;;;;;5092378;27;45408;-80
2022/11/22 05:38:14;;;;;;;;;0.25;0.00;;;;;;;;5081498;27;45192;-80
2022/11/22 05:40:39;;;;;;;;;0.25;0.25;;;;;;;;5086093;27;45180;-82
2022/11/22 05:43:04;;;;;;;;;0.00;0.00;;;;;;;;5081423;27;46261;-83
2022/11/22 05:45:29;;;;;;;;;1.00;0.00;;;;;;;;5081495;27;45428;-81
2022/11/22 05:47:55;;;;;;;;;0.00;0.00;;;;;;;;5081802;27;45315;-80
2022/11/22 05:50:20;;;;;;;;;0.50;0.50;;;;;;;;5081440;27;45371;-80
2022/11/22 05:52:45;;;;;;;;;1.00;0.00;;;;;;;;5082277;27;46317;-80
2022/11/22 05:55:10;;;;;;;;;1.00;0.00;;;;;;;;5088266;27;45428;-76
2022/11/22 05:57:36;;;;;;;;;1.25;0.00;;;;;;;;5087417;27;45387;-77
2022/11/22 06:00:01;;;;;;;;;0.00;0.00;;;;;;;;5094287;27;45294;-79
2022/11/22 06:02:26;;;;;;;;;1.00;0.75;;;;;;;;5078965;27;45247;-79
2022/11/22 06:04:52;;;;;;;;;0.00;0.00;;;;;;;;5079513;27;45635;-79
2022/11/22 06:07:17;;;;;;;;;0.00;0.00;;;;;;;;5080606;27;45429;-78
2022/11/22 06:09:42;;;;;;;;;1.00;1.00;;;;;;;;5079248;27;45295;-81
2022/11/22 06:12:07;;;;;;;;;1.50;0.00;;;;;;;;5080727;27;45359;-80
2022/11/22 06:14:32;;;;;;;;;1.00;1.00;;;;;;;;5082858;27;45260;-81
2022/11/22 06:16:58;;;;;;;;;0.00;0.00;;;;;;;;5091964;27;45380;-82
2022/11/22 06:19:23;;;;;;;;;0.00;0.00;;;;;;;;5081335;27;45426;-80
2022/11/22 06:21:48;;;;;;;;;1.00;1.00;;;;;;;;5092519;27;48048;-82
2022/11/22 06:24:13;;;;;;;;;0.00;0.00;;;;;;;;5088689;27;45315;-81
2022/11/22 06:26:38;;;;;;;;;0.50;0.00;;;;;;;;5086927;27;45415;-80
2022/11/22 06:29:04;;;;;;;;;1.75;1.25;;;;;;;;5082843;27;45586;-83
2022/11/22 06:31:29;;;;;;;;;0.00;0.00;;;;;;;;5094765;27;45481;-81
2022/11/22 06:33:55;;;;;;;;;0.00;0.00;;;;;;;;5099985;27;45448;-82
2022/11/22 06:36:22;;;;;;;;;1.50;0.00;;;;;;;;5089600;27;45402;-82
2022/11/22 06:38:48;;;;;;;;;1.00;0.50;;;;;;;;5087869;27;45448;-81
2022/11/22 06:41:14;;;;;;;;;0.00;0.00;;;;;;;;5093635;27;45175;-80
2022/11/22 06:43:40;;;;;;;;;0.25;0.00;;;;;;;;5084309;27;45409;-82
2022/11/22 06:46:06;;;;;;;;;1.00;0.00;;;;;;;;5088237;27;45434;-81
2022/11/22 06:48:32;;;;;;;;;1.00;1.00;;;;;;;;5083033;27;45239;-81
2022/11/22 06:50:58;;;;;;;;;0.00;0.00;;;;;;;;5082563;27;46833;-81
2022/11/22 06:53:25;;;;;;;;;0.50;0.00;;;;;;;;5082935;27;45416;-81
2022/11/22 06:55:50;;;;;;;;;2.00;0.00;;;;;;;;5084296;27;45396;-81
2022/11/22 06:58:15;;;;;;;;;1.00;0.00;;;;;;;;5091912;27;45352;-81
2022/11/22 07:00:41;;;;;;;;;1.25;1.25;;;;;;;;5087964;27;45283;-82
2022/11/22 07:03:06;;;;;;;;;2.25;0.00;;;;;;;;5081898;27;45326;-81
2022/11/22 07:05:31;;;;;;;;;1.00;1.00;;;;;;;;5091414;27;45422;-81
2022/11/22 07:07:56;;;;;;;;;1.00;1.00;;;;;;;;5082078;27;45291;-82
2022/11/22 07:10:21;;;;;;;;;1.00;1.00;;;;;;;;5084212;27;45541;-82
2022/11/22 07:12:46;;;;;;;;;0.75;0.00;;;;;;;;5094025;27;45375;-81
2022/11/22 07:15:12;;;;;;;;;1.00;1.00;;;;;;;;5093028;27;45383;-81
2022/11/22 07:17:37;;;;;;;;;0.00;0.00;;;;;;;;5087688;27;46467;-82
2022/11/22 07:20:02;;;;;;;;;0.25;0.00;;;;;;;;5081990;27;46284;-82
2022/11/22 07:22:28;;;;;;;;;1.00;1.00;;;;;;;;5087282;27;45340;-81
2022/11/22 07:24:53;;;;;;;;;1.00;0.00;;;;;;;;5082077;27;45259;-81
2022/11/22 07:27:18;;;;;;;;;1.00;0.00;;;;;;;;5084763;27;45225;-80
2022/11/22 07:29:43;;;;;;;;;0.00;0.00;;;;;;;;5094795;27;45223;-81
2022/11/22 07:32:09;;;;;;;;;4.00;1.00;;;;;;;;5083370;27;45401;-81
2022/11/22 07:34:34;;;;;;;;;2.00;1.00;;;;;;;;5085951;27;45337;-81
2022/11/22 07:36:59;;;;;;;;;1.00;1.00;;;;;;;;5088346;27;45627;-80
2022/11/22 07:39:24;;;;;;;;;1.75;0.00;;;;;;;;5081419;27;45398;-80
2022/11/22 07:41:49;;;;;;;;;4.00;0.00;;;;;;;;5088135;27;45345;-80
2022/11/22 07:44:14;;;;;;;;;0.00;0.00;;;;;;;;5095658;27;45454;-79
2022/11/22 07:46:40;;;;;;;;;0.00;0.00;;;;;;;;5084133;27;45360;-80
2022/11/22 07:49:05;;;;;;;;;0.25;0.00;;;;;;;;5090099;27;45943;-81
2022/11/22 07:51:30;;;;;;;;;0.25;0.00;;;;;;;;5087472;27;45357;-80
2022/11/22 07:53:55;;;;;;;;;0.00;0.00;;;;;;;;5081160;27;45161;-80
2022/11/22 07:56:22;;;;;;;;;1.00;0.25;;;;;;;;5086078;27;45917;-78
2022/11/22 07:58:47;;;;;;;;;0.00;0.00;;;;;;;;5096687;27;46167;-78
2022/11/22 08:01:13;;;;;;;;;2.25;1.00;;;;;;;;5083960;27;45320;-77
2022/11/22 08:03:39;;;;;;;;;1.00;0.00;;;;;;;;5085279;27;45366;-77
2022/11/22 08:06:06;;;;;;;;;1.00;1.00;;;;;;;;5083818;27;45469;-79
2022/11/22 08:08:32;;;;;;;;;0.00;0.00;;;;;;;;5082361;27;46738;-81
2022/11/22 08:10:57;;;;;;;;;2.25;1.00;;;;;;;;5081910;27;45331;-81
2022/11/22 08:13:23;;;;;;;;;2.50;0.00;;;;;;;;5079393;27;45540;-79
2022/11/22 08:15:49;;;;;;;;;0.00;0.00;;;;;;;;5084995;27;45305;-82
2022/11/22 08:18:14;;;;;;;;;1.50;0.00;;;;;;;;5080037;27;47294;-81
2022/11/22 08:20:39;;;;;;;;;2.00;0.50;;;;;;;;5081831;27;45211;-80
2022/11/22 08:23:05;;;;;;;;;2.00;1.00;;;;;;;;5081221;27;45240;-78
2022/11/22 08:25:30;;;;;;;;;2.00;0.25;;;;;;;;5089513;27;45536;-80
2022/11/22 08:27:55;;;;;;;;;0.50;0.50;;;;;;;;5086985;27;46814;-80
2022/11/22 08:30:20;;;;;;;;;0.50;0.00;;;;;;;;5095748;27;45194;-79
2022/11/22 08:32:46;;;;;;;;;2.00;0.25;;;;;;;;5085428;27;45604;-79
2022/11/22 08:35:11;;;;;;;;;2.50;1.00;;;;;;;;5087272;27;45181;-79
2022/11/22 08:37:36;;;;;;;;;1.00;1.00;;;;;;;;5084625;27;46971;-79
2022/11/22 08:40:01;;;;;;;;;0.25;0.25;;;;;;;;5080609;27;45291;-80
2022/11/22 08:42:27;;;;;;;;;4.25;1.25;;;;;;;;5083370;27;45250;-80
2022/11/22 08:44:52;;;;;;;;;0.50;0.50;;;;;;;;5080613;27;46328;-80
2022/11/22 08:47:17;;;;;;;;;1.00;1.00;;;;;;;;5082314;27;46516;-79
2022/11/22 08:49:42;;;;;;;;;2.75;0.00;;;;;;;;5080535;27;45198;-81
2022/11/22 08:52:07;;;;;;;;;2.00;0.25;;;;;;;;5090822;27;45525;-78
2022/11/22 08:54:32;;;;;;;;;1.75;1.00;;;;;;;;5089416;27;45384;-80
2022/11/22 08:56:58;;;;;;;;;0.75;0.75;;;;;;;;5085626;27;46684;-79
2022/11/22 08:59:23;;;;;;;;;1.75;1.75;;;;;;;;5084212;27;45369;-79
2022/11/22 09:01:48;;;;;;;;;0.00;0.00;;;;;;;;5083872;27;45695;-79
2022/11/22 09:04:13;;;;;;;;;0.25;0.00;;;;;;;;5080111;28;45354;-79
2022/11/22 09:06:39;;;;;;;;;1.00;1.00;;;;;;;;5082168;27;45497;-78
2022/11/22 09:09:04;;;;;;;;;1.00;0.50;;;;;;;;5093373;27;45304;-80
2022/11/22 09:11:30;;;;;;;;;2.00;2.00;;;;;;;;5087120;27;45277;-78
2022/11/22 09:13:55;;;;;;;;;3.75;2.75;;;;;;;;5081414;27;45433;-79
2022/11/22 09:16:20;;;;;;;;;6.00;3.00;;;;;;;;5081787;27;46941;-80
2022/11/22 09:18:46;;;;;;;;;1.75;1.00;;;;;;;;5092588;27;45345;-78
2022/11/22 09:21:16;;;;;;;;;0.50;0.00;;;;;;;;5085098;27;45480;-80
2022/11/22 09:23:42;;;;;;;;;1.00;1.00;;;;;;;;5082428;27;46264;-80
2022/11/22 09:26:09;;;;;;;;;4.25;1.75;;;;;;;;5088892;27;46583;-79
2022/11/22 09:28:35;;;;;;;;;3.00;2.00;;;;;;;;5080482;27;45288;-81
2022/11/22 09:31:04;;;;;;;;;2.25;1.25;;;;;;;;5086600;27;45406;-81
2022/11/22 09:33:29;;;;;;;;;2.00;1.00;;;;;;;;5079423;27;45519;-80
2022/11/22 09:35:59;;;;;;;;;2.25;0.00;;;;;;;;5092047;27;47043;-81
2022/11/22 09:38:24;;;;;;;;;3.50;1.00;;;;;;;;5086439;27;45564;-78
2022/11/22 09:40:49;;;;;;;;;6.50;2.50;;;;;;;;5083520;27;45757;-80
2022/11/22 09:43:20;;;;;;;;;2.25;1.00;;;;;;;;5079305;27;45349;-80
2022/11/22 09:45:52;;;;;;;;;4.75;2.75;;;;;;;;5083672;27;45356;-81
2022/11/22 09:48:26;;;;;;;;;1.50;1.25;;;;;;;;5079132;27;45268;-80
2022/11/22 09:51:00;;;;;;;;;0.75;0.75;;;;;;;;5081295;27;45575;-81
2022/11/22 09:53:32;;;;;;;;;5.00;1.00;;;;;;;;5079942;27;45619;-80
2022/11/22 09:55:59;;;;;;;;;4.00;2.00;;;;;;;;5090798;27;46136;-79
2022/11/22 09:58:39;;;;;;;;;3.00;1.50;;;;;;;;5095291;27;45410;-81
2022/11/22 10:01:08;;;;;;;;;0.50;0.50;;;;;;;;5099701;27;45282;-81
2022/11/22 10:03:42;;;;;;;;;4.00;1.00;;;;;;;;5082265;27;45238;-79
2022/11/22 10:06:13;;;;;;;;;2.00;1.00;;;;;;;;5084636;27;46506;-79
2022/11/22 10:08:58;;;;;;;;;1.00;1.00;;;;;;;;5084323;27;45284;-80
2022/11/22 10:11:37;;;;;;;;;2.50;1.00;;;;;;;;5092809;27;45367;-80
2022/11/22 10:14:13;;;;;;;;;4.50;1.00;;;;;;;;5083120;27;45215;-80
2022/11/22 10:16:51;;;;;;;;;0.00;0.00;;;;;;;;5090947;27;45423;-79
2022/11/22 10:19:24;;;;;;;;;2.75;1.25;;;;;;;;5081942;27;45446;-77
2022/11/22 10:21:49;;;;;;;;;2.50;2.00;;;;;;;;5084861;27;45453;-81
2022/11/22 10:24:17;;;;;;;;;2.75;1.00;;;;;;;;5087564;27;45398;-77
2022/11/22 10:26:42;;;;;;;;;1.25;1.00;;;;;;;;5086785;27;45440;-80
2022/11/22 10:29:08;;;;;;;;;0.25;0.00;;;;;;;;5082111;27;45275;-79
2022/11/22 10:31:42;;;;;;;;;6.00;1.00;;;;;;;;5088527;27;45449;-78
2022/11/22 10:34:22;;;;;;;;;2.25;1.00;;;;;;;;5099758;27;45372;-80
2022/11/22 10:36:54;;;;;;;;;1.50;1.00;;;;;;;;5090698;27;45381;-78
2022/11/22 10:39:49;;;;;;;;;5.50;1.75;;;;;;;;5090326;27;45316;-78
2022/11/22 10:42:14;;;;;;;;;2.50;1.50;;;;;;;;5046925;27;45896;-80
2022/11/22 10:44:48;;;;;;;;;2.33;1.00;;;;;;;;5091393;27;45239;-80
2022/11/22 10:47:30;;;;;;;;;1.67;1.00;;;;;;;;5083108;27;47006;-80
2022/11/22 10:49:55;;;;;;;;;1.67;1.67;;;;;;;;5081514;27;45422;-79
2022/11/22 10:52:35;;;;;;;;;0.33;0.00;;;;;;;;5086165;27;45432;-79
2022/11/22 10:55:10;;;;;;;;;0.00;0.00;;;;;;;;5083321;27;45548;-79
2022/11/22 10:57:49;;;;;;;;;0.67;0.00;;;;;;;;5088026;27;45461;-79
2022/11/22 11:00:25;;;;;;;;;3.00;1.50;;;;;;;;5083960;27;45377;-79
2022/11/22 11:03:22;;;;;;;;;4.00;1.33;;;;;;;;5081957;27;45413;-78
2022/11/22 11:05:54;;;;;;;;;0.00;0.00;;;;;;;;5061478;27;45436;-79
2022/11/22 11:08:33;;;;;;;;;1.67;1.33;;;;;;;;5097836;27;45566;-80
2022/11/22 11:10:59;;;;;;;;;1.00;1.00;;;;;;;;5088703;27;45355;-79
2022/11/22 11:13:27;;;;;;;;;2.00;0.33;;;;;;;;5087808;27;45289;-78
2022/11/22 11:15:53;;;;;;;;;4.50;2.25;;;;;;;;5092382;27;45426;-78
2022/11/22 11:18:39;;;;;;;;;5.33;1.00;;;;;;;;5083148;27;45369;-78
2022/11/22 11:21:05;;;;;;;;;0.33;0.00;;;;;;;;5083241;27;45476;-79
2022/11/22 11:23:30;;;;;;;;;3.00;1.00;;;;;;;;5094154;27;45449;-79
2022/11/22 11:26:12;;;;;;;;;0.33;0.00;;;;;;;;5087029;27;45505;-78
2022/11/22 11:28:37;;;;;;;;;0.00;0.00;;;;;;;;5084583;27;45297;-78
2022/11/22 11:31:07;;;;;;;;;1.50;0.00;;;;;;;;5083355;27;45215;-75
2022/11/22 11:33:33;;;;;;;;;4.50;2.00;;;;;;;;5081496;27;45399;-78
2022/11/22 11:36:08;;;;;;;;;3.00;1.00;;;;;;;;5090053;27;46040;-78
2022/11/22 11:38:35;;;;;;;;;1.75;1.50;;;;;;;;5081225;27;45521;-78
2022/11/22 11:41:32;;;;;;;;;1.67;1.00;;;;;;;;5085975;27;45366;-77
2022/11/22 11:44:18;;;;;;;;;0.67;0.67;;;;;;;;5062777;28;45450;-77
2022/11/22 11:46:44;;;;;;;;;3.00;0.00;;;;;;;;5083005;27;45407;-78
2022/11/22 11:49:12;;;;;;;;;2.25;2.25;;;;;;;;5080827;27;45252;-77
2022/11/22 11:51:39;;;;;;;;;2.00;0.33;;;;;;;;5083052;27;44760;-76
2022/11/22 11:54:27;;;;;;;;;2.00;0.67;;;;;;;;5080818;27;45511;-76
2022/11/22 11:56:57;;;;;;;;;3.00;1.00;;;;;;;;5076360;27;45834;-77
2022/11/22 11:59:30;;;;;;;;;2.67;1.00;;;;;;;;5081417;27;46124;-78
2022/11/22 12:02:01;;;;;;;;;5.33;2.00;;;;;;;;5081169;27;45445;-77
2022/11/22 12:04:28;;;;;;;;;1.67;1.00;;;;;;;;5081201;27;45251;-77
2022/11/22 12:06:55;;;;;;;;;4.67;1.00;;;;;;;;5080377;27;45394;-76
2022/11/22 12:09:28;;;;;;;;;1.00;1.00;;;;;;;;5080806;27;45140;-76
2022/11/22 12:11:55;;;;;;;;;1.00;1.00;;;;;;;;5083309;27;45379;-78
2022/11/22 12:14:23;;;;;;;;;4.00;1.00;;;;;;;;5089104;27;45344;-77
2022/11/22 12:16:51;;;;;;;;;0.33;0.00;;;;;;;;5089504;27;45476;-78
2022/11/22 12:19:19;;;;;;;;;3.33;0.00;;;;;;;;5079865;27;46204;-77
2022/11/22 12:21:52;;;;;;;;;0.67;0.00;;;;;;;;5089499;27;45348;-77
2022/11/22 12:24:29;;;;;;;;;3.33;1.33;;;;;;;;5080504;27;45217;-77
2022/11/22 12:26:55;;;;;;;;;2.33;0.00;;;;;;;;5084350;27;45416;-77
2022/11/22 12:29:20;;;;;;;;;1.00;1.00;;;;;;;;5080388;27;45422;-77
2022/11/22 12:31:52;;;;;;;;;1.00;1.00;;;;;;;;5082497;27;45430;-77
2022/11/22 12:34:26;;;;;;;;;3.00;1.00;;;;;;;;5086949;27;45251;-78
2022/11/22 12:36:54;;;;;;;;;2.00;1.00;;;;;;;;5083725;27;45523;-77
2022/11/22 12:39:22;;;;;;;;;2.33;0.67;;;;;;;;5079995;27;45328;-77
2022/11/22 12:41:48;;;;;;;;;1.00;1.00;;;;;;;;5081780;27;45377;-77
2022/11/22 12:44:18;;;;;;;;;1.00;1.00;;;;;;;;5093616;27;45386;-77
2022/11/22 12:46:51;;;;;;;;;1.00;1.00;;;;;;;;5082146;27;45331;-77
2022/11/22 12:49:35;;;;;;;;;1.00;0.00;;;;;;;;5079840;27;46128;-75
2022/11/22 12:52:05;;;;;;;;;2.00;1.00;;;;;;;;5093928;27;45980;-75
2022/11/22 12:54:33;;;;;;;;;2.00;2.00;;;;;;;;5081682;27;45321;-76
2022/11/22 12:57:01;;;;;;;;;1.00;1.00;;;;;;;;5091697;27;45326;-77
2022/11/22 12:59:49;;;;;;;;;2.00;1.00;;;;;;;;5081606;27;47069;-75
2022/11/22 13:02:21;;;;;;;;;2.00;0.00;;;;;;;;5081896;27;45403;-74
2022/11/22 13:04:51;;;;;;;;;1.33;1.00;;;;;;;;5080008;27;45287;-76
2022/11/22 13:07:22;;;;;;;;;1.00;1.00;;;;;;;;5082001;27;45482;-75
2022/11/22 13:09:50;;;;;;;;;2.00;2.00;;;;;;;;5080152;27;46633;-77
2022/11/22 13:12:20;;;;;;;;;0.67;0.33;;;;;;;;5084665;27;45364;-76
2022/11/22 13:14:48;;;;;;;;;0.00;0.00;;;;;;;;5093164;27;45334;-76
2022/11/22 13:17:15;;;;;;;;;2.67;1.00;;;;;;;;5088389;27;45592;-76
2022/11/22 13:19:45;;;;;;;;;3.00;1.00;;;;;;;;5078991;27;46663;-75
2022/11/22 13:22:15;;;;;;;;;1.00;1.00;;;;;;;;5088970;27;45247;-76
2022/11/22 13:24:44;;;;;;;;;3.33;1.00;;;;;;;;5079315;27;45473;-76
2022/11/22 13:27:19;;;;;;;;;2.33;0.33;;;;;;;;5082677;27;45506;-76
2022/11/22 13:29:46;;;;;;;;;1.00;1.00;;;;;;;;5078519;27;45233;-76
2022/11/22 13:32:11;;;;;;;;;1.33;1.00;;;;;;;;5079553;27;45280;-77
2022/11/22 13:34:39;;;;;;;;;1.33;1.00;;;;;;;;5079521;27;45263;-76
2022/11/22 13:37:09;;;;;;;;;0.33;0.33;;;;;;;;5083512;27;45656;-74
2022/11/22 13:39:39;;;;;;;;;0.67;0.67;;;;;;;;5079303;28;45349;-77
2022/11/22 13:42:05;;;;;;;;;1.67;1.67;;;;;;;;5080294;27;45554;-77
2022/11/22 13:44:30;;;;;;;;;1.00;1.00;;;;;;;;5077359;27;45450;-77
2022/11/22 13:46:59;;;;;;;;;1.00;1.00;;;;;;;;5081331;27;45355;-78
2022/11/22 13:49:44;;;;;;;;;0.33;0.33;;;;;;;;5079112;27;45217;-74
2022/11/22 13:52:15;;;;;;;;;1.33;0.00;;;;;;;;5081936;27;45435;-75
2022/11/22 13:54:47;;;;;;;;;1.00;1.00;;;;;;;;5098046;27;45469;-75
2022/11/22 13:57:24;;;;;;;;;1.00;1.00;;;;;;;;5086319;27;45389;-76
2022/11/22 14:00:08;;;;;;;;;1.00;1.00;;;;;;;;5077473;27;47985;-76
2022/11/22 14:02:33;;;;;;;;;1.00;0.00;;;;;;;;5083345;27;45351;-76
2022/11/22 14:04:59;;;;;;;;;2.33;1.00;;;;;;;;5079738;27;46419;-75
2022/11/22 14:07:42;;;;;;;;;1.67;1.00;;;;;;;;5085961;27;45376;-76
2022/11/22 14:10:26;;;;;;;;;7.00;3.67;;;;;;;;5083881;27;45278;-78
2022/11/22 14:12:57;;;;;;;;;1.33;1.33;;;;;;;;5078666;27;45180;-75
2022/11/22 14:15:41;;;;;;;;;2.00;2.00;;;;;;;;5085752;27;45538;-78
2022/11/22 14:18:39;;;;;;;;;5.67;2.67;;;;;;;;5079449;27;45249;-76
2022/11/22 14:21:23;;;;;;;;;2.00;1.33;;;;;;;;5052283;27;45589;-76
2022/11/22 14:23:51;;;;;;;;;1.33;1.00;;;;;;;;5078756;27;45462;-76
2022/11/22 14:26:24;;;;;;;;;5.00;2.00;;;;;;;;5084737;27;45230;-76
2022/11/22 14:29:15;;;;;;;;;2.33;1.00;;;;;;;;5081757;27;45252;-75
2022/11/22 14:31:41;;;;;;;;;1.00;1.00;;;;;;;;5084834;27;45527;-76
2022/11/22 14:34:14;;;;;;;;;3.00;3.00;;;;;;;;5083663;27;45394;-76
2022/11/22 14:36:39;;;;;;;;;5.50;4.00;;;;;;;;5085814;27;45500;-76
2022/11/22 14:39:23;;;;;;;;;4.67;2.00;;;;;;;;5078441;27;45414;-76
2022/11/22 14:41:48;;;;;;;;;0.33;0.33;;;;;;;;5084115;27;45571;-76
2022/11/22 14:44:18;;;;;;;;;2.67;1.00;;;;;;;;5087578;27;45264;-76
2022/11/22 14:46:56;;;;;;;;;1.67;1.00;;;;;;;;5092901;27;45446;-76
2022/11/22 14:49:26;;;;;;;;;3.00;1.67;;;;;;;;5081898;27;45442;-76
2022/11/22 14:51:52;;;;;;;;;1.33;1.33;;;;;;;;5086559;27;45431;-76
2022/11/22 14:54:21;;;;;;;;;6.00;5.00;;;;;;;;5081981;27;45265;-76
2022/11/22 14:56:47;;;;;;;;;5.67;1.33;;;;;;;;5087107;27;45374;-76
2022/11/22 14:59:15;;;;;;;;;7.33;2.00;;;;;;;;5081924;27;45528;-76
2022/11/22 15:01:40;;;;;;;;;3.00;3.00;;;;;;;;5091454;27;45448;-75
2022/11/22 15:04:06;;;;;;;;;6.75;6.00;;;;;;;;5082432;27;45286;-75
2022/11/22 15:06:39;;;;;;;;;4.33;3.00;;;;;;;;5084709;27;45329;-75